Aviation Digital Data Service (ADDS)

Output produced by METARs form (1821 UTC 22 November 2017)
found at http://www.aviationweather.gov/adds/metars/
 
TAF TQPF 221700Z 2218/2318 09009KT 9999 SCT020 
     PROB30 
     TEMPO 2218/2309 SHRA BKN014